createdAt,value
2022-12-08T00:02:02.661Z,-11124.25
2022-12-08T00:05:28.558Z,-11127.06
2022-12-08T00:08:52.970Z,-11124.53
2022-12-08T00:12:01.690Z,-11124.53
2022-12-08T00:15:09.796Z,-11128.88
2022-12-08T00:18:16.248Z,-11128.88
2022-12-08T00:21:22.536Z,-11127.06
2022-12-08T00:24:34.915Z,-11121.44
2022-12-08T00:27:40.915Z,-11106.00
2022-12-08T00:30:48.554Z,-11107.41
2022-12-08T00:33:54.700Z,-11110.75
2022-12-08T00:37:00.738Z,-11117.94
2022-12-08T00:40:08.342Z,-11122.28
2022-12-08T00:43:14.982Z,-11120.03
2022-12-08T00:46:22.485Z,-11123.53
2022-12-08T00:49:28.648Z,-11118.63
2022-12-08T00:52:35.233Z,-11106.00
2022-12-08T00:55:41.478Z,-11108.37
2022-12-08T00:58:47.641Z,-11118.63
2022-12-08T01:01:55.428Z,-11118.19
2022-12-08T01:05:01.530Z,-11115.53
2022-12-08T01:08:08.184Z,-11119.75
2022-12-08T01:11:17.462Z,-11115.25
2022-12-08T01:14:23.812Z,-11120.03
2022-12-08T01:17:31.341Z,-11120.03
2022-12-08T01:20:37.339Z,-11118.19
2022-12-08T01:23:44.208Z,-11120.59
2022-12-08T01:26:52.047Z,-11118.63
2022-12-08T01:29:58.222Z,-11112.44
2022-12-08T01:33:06.176Z,-11115.13
2022-12-08T01:36:21.253Z,-11109.63
2022-12-08T01:39:27.637Z,-11111.31
2022-12-08T01:42:34.677Z,-11104.88
2022-12-08T01:45:42.216Z,-11114.97
2022-12-08T01:48:52.241Z,-11104.31
2022-12-08T01:52:04.268Z,-11106.56
2022-12-08T01:55:16.798Z,-11104.72
2022-12-08T01:58:27.970Z,-11104.31
2022-12-08T02:01:34.910Z,-11102.62
2022-12-08T02:04:42.452Z,-11094.03
2022-12-08T02:07:49.793Z,-11102.75
2022-12-08T02:10:56.097Z,-11100.50
2022-12-08T02:14:07.199Z,-11093.06
2022-12-08T02:17:23.664Z,-11094.47
2022-12-08T02:20:46.540Z,-11102.34
2022-12-08T02:24:00.682Z,-11102.06
2022-12-08T02:27:34.088Z,-11098.25
2022-12-08T02:30:52.126Z,-11100.09
2022-12-08T02:34:28.930Z,-11090.69
2022-12-08T02:37:40.546Z,-11099.09
2022-12-08T02:40:54.691Z,-11101.22
2022-12-08T02:44:07.537Z,-11092.22
2022-12-08T02:47:17.052Z,-11101.50
2022-12-08T02:50:24.491Z,-11106.00
2022-12-08T02:53:33.521Z,-11106.41
2022-12-08T02:57:13.669Z,-11103.19
2022-12-08T03:00:22.884Z,-11089.00
2022-12-08T03:03:36.932Z,-11095.88
2022-12-08T03:06:50.119Z,-11087.44
2022-12-08T03:10:00.079Z,-11095.59
2022-12-08T03:13:11.014Z,-11097.28
2022-12-08T03:16:23.995Z,-11103.75
2022-12-08T03:19:34.069Z,-11099.38
2022-12-08T03:22:43.422Z,-11103.19
2022-12-08T03:25:58.185Z,-11098.41
2022-12-08T03:29:05.277Z,-11102.06
2022-12-08T03:32:20.577Z,-11111.31
2022-12-08T03:35:31.570Z,-11099.09
2022-12-08T03:38:44.523Z,-11099.94
2022-12-08T03:41:50.476Z,-11103.75
2022-12-08T03:44:56.897Z,-11109.50
2022-12-08T03:48:02.790Z,-11109.50
2022-12-08T03:51:09.125Z,-11107.69
2022-12-08T03:54:16.717Z,-11104.88
2022-12-08T03:57:23.057Z,-11097.84
2022-12-08T04:00:29.150Z,-11102.62
2022-12-08T04:03:35.166Z,-11106.41
2022-12-08T04:06:41.624Z,-11099.25
2022-12-08T04:09:49.295Z,-11090.81
2022-12-08T04:12:55.715Z,-11097.56
2022-12-08T04:16:02.324Z,-11104.16
2022-12-08T04:19:08.370Z,-11094.75
2022-12-08T04:22:14.466Z,-11091.53
2022-12-08T04:25:21.730Z,-11105.72
2022-12-08T04:28:29.556Z,-11103.47
2022-12-08T04:31:35.506Z,-11104.03
2022-12-08T04:34:41.820Z,-11101.78
2022-12-08T04:37:47.831Z,-11111.19
2022-12-08T04:40:55.472Z,-11110.47
2022-12-08T04:44:01.862Z,-11114.13
2022-12-08T04:47:08.261Z,-11113.56
2022-12-08T04:50:14.585Z,-11113.84
2022-12-08T04:53:21.495Z,-11110.34
2022-12-08T04:56:29.193Z,-11109.22
2022-12-08T04:59:35.512Z,-11101.63
2022-12-08T05:02:42.073Z,-11112.72
2022-12-08T05:05:48.702Z,-11116.09
2022-12-08T05:08:54.656Z,-11109.78
2022-12-08T05:12:02.076Z,-11117.78
2022-12-08T05:15:09.330Z,-11117.22
2022-12-08T05:18:15.819Z,-11119.19
2022-12-08T05:21:21.982Z,-11118.91
2022-12-08T05:24:28.238Z,-11116.53
2022-12-08T05:27:35.663Z,-11116.81
2022-12-08T05:30:42.026Z,-11117.66
2022-12-08T05:33:50.155Z,-11118.75
2022-12-08T05:36:56.383Z,-11114.41
2022-12-08T05:40:02.585Z,-11119.47
2022-12-08T05:43:11.003Z,-11120.03
2022-12-08T05:46:18.480Z,-11113.00
2022-12-08T05:49:25.067Z,-11111.88
2022-12-08T05:52:31.040Z,-11118.63
2022-12-08T05:55:37.076Z,-11114.41
2022-12-08T05:58:45.643Z,-11118.34
2022-12-08T06:01:51.864Z,-11122.56
2022-12-08T06:04:58.334Z,-11122.00
2022-12-08T06:08:04.492Z,-11121.72
2022-12-08T06:11:11.276Z,-11120.59
2022-12-08T06:14:18.680Z,-11114.97
2022-12-08T06:17:24.697Z,-11116.53
2022-12-08T06:20:31.039Z,-11112.44
2022-12-08T06:23:37.383Z,-11104.88
2022-12-08T06:26:43.532Z,-11115.81
2022-12-08T06:29:51.007Z,-11109.91
2022-12-08T06:32:57.197Z,-11117.38
2022-12-08T06:36:03.108Z,-11118.63
2022-12-08T06:39:10.301Z,-11125.94
2022-12-08T06:42:34.441Z,-11114.13
2022-12-08T06:45:42.483Z,-11106.00
2022-12-08T06:48:50.655Z,-11111.75
2022-12-08T06:51:56.755Z,-11118.47
2022-12-08T06:55:03.056Z,-11115.81
2022-12-08T06:58:09.362Z,-11119.75
2022-12-08T07:01:16.855Z,-11126.50
2022-12-08T07:04:23.210Z,-11125.09
2022-12-08T07:07:29.245Z,-11125.66
2022-12-08T07:10:35.910Z,-11130.41
2022-12-08T07:13:42.376Z,-11134.34
2022-12-08T07:16:50.100Z,-11133.66
2022-12-08T07:19:56.301Z,-11131.81
2022-12-08T07:23:02.487Z,-11137.31
2022-12-08T07:26:11.628Z,-11138.72
2022-12-08T07:29:23.006Z,-11140.53
2022-12-08T07:32:33.560Z,-11139.69
2022-12-08T07:35:39.612Z,-11133.66
2022-12-08T07:38:45.566Z,-11142.78
2022-12-08T07:41:51.513Z,-11139.69
2022-12-08T07:44:57.829Z,-11142.66
2022-12-08T07:48:05.474Z,-11146.72
2022-12-08T07:51:14.058Z,-11145.88
2022-12-08T07:54:20.261Z,-11153.75
2022-12-08T07:57:26.405Z,-11151.22
2022-12-08T08:00:32.436Z,-11150.66
2022-12-08T08:03:40.433Z,-11148.97
2022-12-08T08:06:46.694Z,-11152.34
2022-12-08T08:09:52.792Z,-11150.66
2022-12-08T08:13:00.436Z,-11144.75
2022-12-08T08:16:07.574Z,-11149.25
2022-12-08T08:19:15.297Z,-11148.53
2022-12-08T08:22:21.775Z,-11148.81
2022-12-08T08:25:28.349Z,-11148.13
2022-12-08T08:28:34.775Z,-11145.47
2022-12-08T08:31:41.361Z,-11150.38
2022-12-08T08:34:49.400Z,-11143.06
2022-12-08T08:37:55.682Z,-11143.34
2022-12-08T08:41:03.081Z,-11143.78
2022-12-08T08:44:09.517Z,-11149.25
2022-12-08T08:47:15.906Z,-11151.06
2022-12-08T08:50:23.935Z,-11156.56
2022-12-08T08:53:30.090Z,-11160.91
2022-12-08T08:56:36.752Z,-11160.63
2022-12-08T08:59:42.830Z,-11159.66
2022-12-08T09:02:49.157Z,-11156.69
2022-12-08T09:05:58.235Z,-11163.59
2022-12-08T09:09:05.110Z,-11157.97
2022-12-08T09:12:11.972Z,-11163.88
2022-12-08T09:15:20.618Z,-11152.91
2022-12-08T09:18:27.113Z,-11157.97
2022-12-08T09:21:35.156Z,-11159.66
2022-12-08T09:24:41.695Z,-11157.97
2022-12-08T09:27:47.801Z,-11163.31
2022-12-08T09:30:54.157Z,-11163.03
2022-12-08T09:34:00.579Z,-11154.59
2022-12-08T09:37:08.485Z,-11157.69
2022-12-08T09:40:19.818Z,-11158.38
2022-12-08T09:43:47.641Z,-11165.00
2022-12-08T09:46:54.519Z,-11161.63
2022-12-08T09:50:07.541Z,-11166.97
2022-12-08T09:53:19.896Z,-11149.38
2022-12-08T09:56:30.095Z,-11153.31
2022-12-08T09:59:37.272Z,-11161.91
2022-12-08T10:02:46.940Z,-11165.13
2022-12-08T10:06:08.976Z,-11166.97
2022-12-08T10:09:32.428Z,-11165.97
2022-12-08T10:12:44.647Z,-11166.97
2022-12-08T10:15:59.341Z,-11170.06
2022-12-08T10:19:14.972Z,-11171.75
2022-12-08T10:22:23.381Z,-11165.56
2022-12-08T10:25:37.231Z,-11170.63
2022-12-08T10:28:45.493Z,-11172.44
2022-12-08T10:31:52.263Z,-11172.31
2022-12-08T10:35:06.068Z,-11165.97
2022-12-08T10:38:19.963Z,-11166.13
2022-12-08T10:41:27.762Z,-11169.34
2022-12-08T10:44:34.242Z,-11173.97
2022-12-08T10:47:45.031Z,-11170.47
2022-12-08T10:50:56.082Z,-11172.44
2022-12-08T10:54:03.379Z,-11179.03
2022-12-08T10:57:22.019Z,-11166.25
2022-12-08T11:00:29.597Z,-11176.09
2022-12-08T11:03:46.340Z,-11173.72
2022-12-08T11:06:54.137Z,-11174.13
2022-12-08T11:10:01.288Z,-11180.31
2022-12-08T11:13:24.690Z,-11182.97
2022-12-08T11:16:30.976Z,-11175.09
2022-12-08T11:19:39.973Z,-11185.66
2022-12-08T11:22:48.287Z,-11190.00
2022-12-08T11:25:58.970Z,-11181.28
2022-12-08T11:29:06.860Z,-11191.41
2022-12-08T11:32:15.067Z,-11182.00
2022-12-08T11:35:26.779Z,-11179.19
2022-12-08T11:38:35.451Z,-11188.31
2022-12-08T11:41:46.069Z,-11184.38
2022-12-08T11:44:58.645Z,-11189.44
2022-12-08T11:48:15.826Z,-11197.31
2022-12-08T11:51:29.992Z,-11201.97
2022-12-08T11:54:40.576Z,-11196.47
2022-12-08T11:57:47.182Z,-11197.19
2022-12-08T12:00:55.266Z,-11196.34
2022-12-08T12:04:12.533Z,-11195.06
2022-12-08T12:07:55.811Z,-11208.00
2022-12-08T12:11:34.231Z,-11214.47
2022-12-08T12:14:55.452Z,-11216.16
2022-12-08T12:18:08.084Z,-11209.00
2022-12-08T12:21:22.288Z,-11217.16
2022-12-08T12:24:35.980Z,-11218.13
2022-12-08T12:27:43.858Z,-11215.47
2022-12-08T12:31:00.539Z,-11217.16
2022-12-08T12:34:12.909Z,-11203.22
2022-12-08T12:37:23.361Z,-11196.75
2022-12-08T12:40:35.643Z,-11200.00
2022-12-08T12:44:02.295Z,-11202.81
2022-12-08T12:47:15.269Z,-11205.06
2022-12-08T12:50:44.562Z,-11204.78
2022-12-08T12:53:52.149Z,-11188.31
2022-12-08T12:57:17.001Z,-11200.97
2022-12-08T13:00:25.627Z,-11194.22
2022-12-08T13:03:32.082Z,-11186.50
2022-12-08T13:06:43.488Z,-11190.00
2022-12-08T13:09:58.920Z,-11191.13
2022-12-08T13:13:19.266Z,-11191.69
2022-12-08T13:16:28.090Z,-11191.84
2022-12-08T13:19:37.349Z,-11190.72
2022-12-08T13:23:15.188Z,-11182.97
2022-12-08T13:26:23.795Z,-11182.41
2022-12-08T13:29:30.451Z,-11182.28
2022-12-08T13:33:22.821Z,-11186.06
2022-12-08T13:36:27.700Z,-11188.47
2022-12-08T13:39:42.587Z,-11179.31
2022-12-08T13:42:58.945Z,-11174.41
2022-12-08T13:57:06.797Z,-11183.81
2022-12-08T14:00:18.146Z,-11176.50
2022-12-08T14:03:24.231Z,-11180.88
2022-12-08T14:06:37.751Z,-11178.47
2022-12-08T14:09:44.366Z,-11174.69
2022-12-08T14:12:56.812Z,-11173.72
2022-12-08T14:16:03.058Z,-11178.63
2022-12-08T14:19:19.416Z,-11177.63
2022-12-08T14:22:26.092Z,-11173.84
2022-12-08T14:25:32.617Z,-11172.59
2022-12-08T14:28:44.774Z,-11170.19
2022-12-08T14:31:51.673Z,-11169.22
2022-12-08T14:35:01.083Z,-11170.75
2022-12-08T14:38:13.853Z,-11175.25
2022-12-08T14:41:28.185Z,-11173.97
2022-12-08T14:44:41.221Z,-11163.59
2022-12-08T14:47:48.641Z,-11176.78
2022-12-08T14:51:02.981Z,-11176.22
2022-12-08T14:54:11.588Z,-11178.63
2022-12-08T14:57:18.130Z,-11178.47
2022-12-08T15:00:26.931Z,-11174.97
2022-12-08T15:03:33.711Z,-11172.59
2022-12-08T15:06:48.825Z,-11170.19
2022-12-08T15:10:11.680Z,-11173.00
2022-12-08T15:13:24.576Z,-11179.31
2022-12-08T15:16:40.777Z,-11181.28
2022-12-08T15:19:57.682Z,-11178.75
2022-12-08T15:23:04.287Z,-11178.06
2022-12-08T15:26:19.785Z,-11175.66
2022-12-08T15:29:28.570Z,-11173.72
2022-12-08T15:32:36.099Z,-11169.78
2022-12-08T15:35:42.504Z,-11175.81
2022-12-08T15:38:49.110Z,-11178.63
2022-12-08T15:41:55.504Z,-11178.75
2022-12-08T15:45:01.575Z,-11167.81
2022-12-08T15:48:14.895Z,-11166.41
2022-12-08T15:51:21.044Z,-11173.16
2022-12-08T15:54:27.092Z,-11170.06
2022-12-08T15:58:17.437Z,-11175.38
2022-12-08T16:01:01.153Z,-11181.16
2022-12-08T16:04:37.260Z,-11173.97
2022-12-08T16:07:38.291Z,-11182.13
2022-12-08T16:11:24.151Z,-11181.84
2022-12-08T16:15:01.430Z,-11179.31
2022-12-08T16:17:37.618Z,-11181.72
2022-12-08T16:24:11.986Z,-11178.06
2022-12-08T16:27:59.436Z,-11176.66
2022-12-08T16:30:49.574Z,-11176.50
2022-12-08T16:33:55.751Z,-11181.84
2022-12-08T16:37:03.597Z,-11178.47
2022-12-08T16:40:11.670Z,-11175.81
2022-12-08T16:43:17.057Z,-11173.97
2022-12-08T16:46:27.586Z,-11174.53
2022-12-08T16:49:34.026Z,-11176.94
2022-12-08T16:52:41.578Z,-11181.56
2022-12-08T16:55:48.425Z,-11182.69
2022-12-08T16:58:54.294Z,-11182.28
2022-12-08T17:02:00.293Z,-11179.88
2022-12-08T17:05:06.965Z,-11178.75
2022-12-08T17:08:14.739Z,-11179.03
2022-12-08T17:11:26.573Z,-11181.28
2022-12-08T17:14:35.183Z,-11179.75
2022-12-08T17:17:41.388Z,-11172.59
2022-12-08T17:20:47.889Z,-11174.69
2022-12-08T17:23:55.993Z,-11180.88
2022-12-08T17:27:04.297Z,-11179.88
2022-12-08T17:30:15.656Z,-11177.91
2022-12-08T17:33:26.755Z,-11175.09
2022-12-08T17:36:33.541Z,-11180.59
2022-12-08T17:39:41.758Z,-11173.16
2022-12-08T17:42:48.106Z,-11172.59
2022-12-08T17:45:56.264Z,-11175.25
2022-12-08T17:49:02.771Z,-11181.56
2022-12-08T17:52:09.226Z,-11178.19
2022-12-08T17:55:17.125Z,-11180.16
2022-12-08T17:58:24.802Z,-11180.16
2022-12-08T18:01:34.489Z,-11179.88
2022-12-08T18:04:41.416Z,-11179.59
2022-12-08T18:07:48.127Z,-11168.22
2022-12-08T18:10:56.185Z,-11174.81
2022-12-08T18:14:09.413Z,-11174.25
2022-12-08T18:17:15.548Z,-11176.78
2022-12-08T18:20:21.782Z,-11175.38
2022-12-08T18:23:28.342Z,-11176.94
2022-12-08T18:26:36.154Z,-11181.28
2022-12-08T18:29:42.719Z,-11181.28
2022-12-08T18:32:52.883Z,-11181.84
2022-12-08T18:36:02.298Z,-11189.44
2022-12-08T18:39:10.885Z,-11175.66
2022-12-08T18:42:25.291Z,-11182.69
2022-12-08T18:45:31.536Z,-11176.94
2022-12-08T18:48:37.927Z,-11176.38
2022-12-08T18:51:44.090Z,-11177.22
2022-12-08T18:55:05.709Z,-11181.56
2022-12-08T18:58:14.632Z,-11175.66
2022-12-08T19:01:21.315Z,-11171.19
2022-12-08T19:04:29.065Z,-11169.63
2022-12-08T19:07:36.304Z,-11180.16
2022-12-08T19:10:42.416Z,-11178.19
2022-12-08T19:13:50.226Z,-11173.28
2022-12-08T19:16:56.624Z,-11171.47
2022-12-08T19:20:03.928Z,-11175.94
2022-12-08T19:23:10.410Z,-11181.44
2022-12-08T19:26:17.143Z,-11181.72
2022-12-08T19:29:24.853Z,-11180.16
2022-12-08T19:32:31.258Z,-11175.94
2022-12-08T19:35:38.017Z,-11179.88
2022-12-08T19:39:01.669Z,-11181.56
2022-12-08T19:42:32.432Z,-11177.50
2022-12-08T19:45:39.967Z,-11184.38
2022-12-08T19:48:46.436Z,-11182.97
2022-12-08T19:51:52.747Z,-11175.25
2022-12-08T19:54:58.821Z,-11177.91
2022-12-08T19:58:05.496Z,-11183.25
2022-12-08T20:01:13.225Z,-11185.22
2022-12-08T20:04:20.385Z,-11184.38
2022-12-08T20:07:26.410Z,-11182.41
2022-12-08T20:10:35.753Z,-11179.88
2022-12-08T20:13:41.985Z,-11184.94
2022-12-08T20:16:50.760Z,-11187.19
2022-12-08T20:19:57.129Z,-11183.41
2022-12-08T20:23:03.540Z,-11181.00
2022-12-08T20:26:12.857Z,-11178.75
2022-12-08T20:32:44.406Z,-11183.69
2022-12-08T20:35:59.678Z,-11183.25
2022-12-08T20:39:06.170Z,-11187.06
2022-12-08T20:42:13.951Z,-11185.09
2022-12-08T20:45:20.468Z,-11182.56
2022-12-08T20:48:28.355Z,-11182.97
2022-12-08T20:51:35.515Z,-11180.72
2022-12-08T20:54:41.929Z,-11176.22
2022-12-08T20:57:48.303Z,-11176.09
2022-12-08T21:00:54.753Z,-11183.25
2022-12-08T21:04:02.679Z,-11183.41
2022-12-08T21:07:09.550Z,-11183.25
2022-12-08T21:10:16.195Z,-11183.13
2022-12-08T21:13:22.410Z,-11180.16
2022-12-08T21:16:28.760Z,-11175.38
2022-12-08T21:19:36.875Z,-11178.63
2022-12-08T21:22:42.953Z,-11177.06
2022-12-08T21:25:49.400Z,-11167.66
2022-12-08T21:28:55.985Z,-11171.75
2022-12-08T21:32:02.418Z,-11167.66
2022-12-08T21:35:11.464Z,-11171.75
2022-12-08T21:38:17.804Z,-11179.31
2022-12-08T21:41:39.368Z,-11180.31
2022-12-08T21:44:45.610Z,-11173.16
2022-12-08T21:47:52.203Z,-11169.22
2022-12-08T21:51:05.385Z,-11167.94
2022-12-08T21:54:18.221Z,-11179.03
2022-12-08T21:57:25.401Z,-11168.94
2022-12-08T22:00:31.798Z,-11161.19
2022-12-08T22:03:38.509Z,-11159.78
2022-12-08T22:06:45.983Z,-11168.66
2022-12-08T22:09:52.127Z,-11168.22
2022-12-08T22:12:58.238Z,-11167.66
2022-12-08T22:16:07.595Z,-11165.13
2022-12-08T22:19:13.683Z,-11171.19
2022-12-08T22:22:21.912Z,-11173.84
2022-12-08T22:25:28.048Z,-11170.34
2022-12-08T22:28:37.396Z,-11173.72
2022-12-08T22:31:44.679Z,-11172.03
2022-12-08T22:34:50.530Z,-11167.38
2022-12-08T22:37:57.978Z,-11164.72
2022-12-08T22:41:05.798Z,-11163.31
2022-12-08T22:44:14.018Z,-11157.13
2022-12-08T22:47:20.129Z,-11157.69
2022-12-08T22:50:26.468Z,-11164.16
2022-12-08T22:53:34.245Z,-11157.41
2022-12-08T22:56:40.654Z,-11157.69
2022-12-08T22:59:46.926Z,-11156.00
2022-12-08T23:02:52.832Z,-11159.66
2022-12-08T23:05:59.417Z,-11161.06
2022-12-08T23:09:08.600Z,-11159.38
2022-12-08T23:12:14.937Z,-11156.84
2022-12-08T23:15:21.276Z,-11149.53
2022-12-08T23:18:27.720Z,-11149.25
2022-12-08T23:21:33.817Z,-11144.63
2022-12-08T23:24:41.726Z,-11139.69
2022-12-08T23:27:48.964Z,-11140.81
2022-12-08T23:30:54.878Z,-11141.38
2022-12-08T23:34:01.246Z,-11146.44
2022-12-08T23:37:07.192Z,-11144.19
2022-12-08T23:40:15.185Z,-11141.09
2022-12-08T23:43:21.600Z,-11134.91
2022-12-08T23:46:27.580Z,-11149.09
2022-12-08T23:49:34.085Z,-11151.06
2022-12-08T23:52:40.213Z,-11142.50
2022-12-08T23:55:47.913Z,-11143.34
2022-12-08T23:58:54.057Z,-11151.06
